sensor_id;sensor_type;location;lat;lon;timestamp;temperature;humidity
18502;DHT22;68437;52.236;5.710;2023-04-24T00:00:32;9.30;99.90
18502;DHT22;68437;52.236;5.710;2023-04-24T00:02:58;9.30;99.90
18502;DHT22;68437;52.236;5.710;2023-04-24T00:05:27;9.30;99.90
18502;DHT22;68437;52.236;5.710;2023-04-24T00:07:54;9.30;99.90
18502;DHT22;68437;52.236;5.710;2023-04-24T00:10:21;9.30;99.90
18502;DHT22;68437;52.236;5.710;2023-04-24T00:12:51;9.30;99.90
18502;DHT22;68437;52.236;5.710;2023-04-24T00:15:20;9.30;99.90
18502;DHT22;68437;52.236;5.710;2023-04-24T00:17:47;9.30;99.90
18502;DHT22;68437;52.236;5.710;2023-04-24T00:20:17;9.20;99.90
18502;DHT22;68437;52.236;5.710;2023-04-24T00:22:45;9.20;99.90
18502;DHT22;68437;52.236;5.710;2023-04-24T00:25:12;9.10;99.90
18502;DHT22;68437;52.236;5.710;2023-04-24T00:27:40;9.10;99.90
18502;DHT22;68437;52.236;5.710;2023-04-24T00:30:07;9.20;99.90
18502;DHT22;68437;52.236;5.710;2023-04-24T00:32:34;9.10;99.90
18502;DHT22;68437;52.236;5.710;2023-04-24T00:35:01;9.10;99.90
18502;DHT22;68437;52.236;5.710;2023-04-24T00:37:28;9.10;99.90
18502;DHT22;68437;52.236;5.710;2023-04-24T00:39:56;9.10;99.90
18502;DHT22;68437;52.236;5.710;2023-04-24T00:42:24;9.00;99.90
18502;DHT22;68437;52.236;5.710;2023-04-24T00:44:51;9.10;99.90
18502;DHT22;68437;52.236;5.710;2023-04-24T00:47:19;9.10;99.90
18502;DHT22;68437;52.236;5.710;2023-04-24T00:49:47;9.10;99.90
18502;DHT22;68437;52.236;5.710;2023-04-24T00:52:14;9.10;99.90
18502;DHT22;68437;52.236;5.710;2023-04-24T00:54:43;9.10;99.90
18502;DHT22;68437;52.236;5.710;2023-04-24T00:57:12;9.10;99.90
18502;DHT22;68437;52.236;5.710;2023-04-24T00:59:41;9.10;99.90
18502;DHT22;68437;52.236;5.710;2023-04-24T01:02:08;9.00;99.90
18502;DHT22;68437;52.236;5.710;2023-04-24T01:04:36;9.00;99.90
18502;DHT22;68437;52.236;5.710;2023-04-24T01:07:04;8.90;99.90
18502;DHT22;68437;52.236;5.710;2023-04-24T01:09:35;9.00;99.90
18502;DHT22;68437;52.236;5.710;2023-04-24T01:12:03;8.90;99.90
18502;DHT22;68437;52.236;5.710;2023-04-24T01:14:31;9.00;99.90
18502;DHT22;68437;52.236;5.710;2023-04-24T01:17:00;9.00;99.90
18502;DHT22;68437;52.236;5.710;2023-04-24T01:19:27;9.00;99.90
18502;DHT22;68437;52.236;5.710;2023-04-24T01:21:54;9.00;99.90
18502;DHT22;68437;52.236;5.710;2023-04-24T01:24:26;9.00;99.90
18502;DHT22;68437;52.236;5.710;2023-04-24T01:26:53;9.00;99.90
18502;DHT22;68437;52.236;5.710;2023-04-24T01:29:22;9.00;99.90
18502;DHT22;68437;52.236;5.710;2023-04-24T01:31:49;9.00;99.90
18502;DHT22;68437;52.236;5.710;2023-04-24T01:34:19;9.00;99.90
18502;DHT22;68437;52.236;5.710;2023-04-24T01:36:46;8.90;99.90
18502;DHT22;68437;52.236;5.710;2023-04-24T01:39:13;8.90;99.90
18502;DHT22;68437;52.236;5.710;2023-04-24T01:41:42;8.90;99.90
18502;DHT22;68437;52.236;5.710;2023-04-24T01:44:09;8.90;99.90
18502;DHT22;68437;52.236;5.710;2023-04-24T01:46:36;8.90;99.90
18502;DHT22;68437;52.236;5.710;2023-04-24T01:49:03;8.90;99.90
18502;DHT22;68437;52.236;5.710;2023-04-24T01:51:30;8.90;99.90
18502;DHT22;68437;52.236;5.710;2023-04-24T01:53:57;8.90;99.90
18502;DHT22;68437;52.236;5.710;2023-04-24T01:56:24;8.90;99.90
18502;DHT22;68437;52.236;5.710;2023-04-24T01:58:54;9.00;99.90
18502;DHT22;68437;52.236;5.710;2023-04-24T02:01:23;9.00;99.90
18502;DHT22;68437;52.236;5.710;2023-04-24T02:03:50;9.00;99.90
18502;DHT22;68437;52.236;5.710;2023-04-24T02:06:16;9.00;99.90
18502;DHT22;68437;52.236;5.710;2023-04-24T02:08:43;9.00;99.90
18502;DHT22;68437;52.236;5.710;2023-04-24T02:11:10;9.00;99.90
18502;DHT22;68437;52.236;5.710;2023-04-24T02:13:37;9.00;99.90
18502;DHT22;68437;52.236;5.710;2023-04-24T02:16:08;8.90;99.90
18502;DHT22;68437;52.236;5.710;2023-04-24T02:18:34;8.90;99.90
18502;DHT22;68437;52.236;5.710;2023-04-24T02:21:01;8.90;99.90
18502;DHT22;68437;52.236;5.710;2023-04-24T02:23:28;8.90;99.90
18502;DHT22;68437;52.236;5.710;2023-04-24T02:25:55;8.90;99.90
18502;DHT22;68437;52.236;5.710;2023-04-24T02:28:22;8.90;99.90
18502;DHT22;68437;52.236;5.710;2023-04-24T02:30:48;8.90;99.90
18502;DHT22;68437;52.236;5.710;2023-04-24T02:33:17;8.90;99.90
18502;DHT22;68437;52.236;5.710;2023-04-24T02:35:45;8.90;99.90
18502;DHT22;68437;52.236;5.710;2023-04-24T02:38:12;9.00;99.90
18502;DHT22;68437;52.236;5.710;2023-04-24T02:40:38;9.00;99.90
18502;DHT22;68437;52.236;5.710;2023-04-24T02:43:05;9.00;99.90
18502;DHT22;68437;52.236;5.710;2023-04-24T02:45:32;9.00;99.90
18502;DHT22;68437;52.236;5.710;2023-04-24T02:48:00;9.00;99.90
18502;DHT22;68437;52.236;5.710;2023-04-24T02:50:28;9.00;99.90
18502;DHT22;68437;52.236;5.710;2023-04-24T02:52:55;9.00;99.90
18502;DHT22;68437;52.236;5.710;2023-04-24T02:55:21;9.00;99.90
18502;DHT22;68437;52.236;5.710;2023-04-24T02:57:48;9.00;99.90
18502;DHT22;68437;52.236;5.710;2023-04-24T03:00:15;9.00;99.90
18502;DHT22;68437;52.236;5.710;2023-04-24T03:02:42;9.00;99.90
18502;DHT22;68437;52.236;5.710;2023-04-24T03:05:09;9.00;99.90
18502;DHT22;68437;52.236;5.710;2023-04-24T03:07:38;9.00;99.90
18502;DHT22;68437;52.236;5.710;2023-04-24T03:10:07;9.00;99.90
18502;DHT22;68437;52.236;5.710;2023-04-24T03:12:33;9.00;99.90
18502;DHT22;68437;52.236;5.710;2023-04-24T03:15:00;9.00;99.90
18502;DHT22;68437;52.236;5.710;2023-04-24T03:17:27;9.00;99.90
18502;DHT22;68437;52.236;5.710;2023-04-24T03:19:54;9.00;99.90
18502;DHT22;68437;52.236;5.710;2023-04-24T03:22:21;9.00;99.90
18502;DHT22;68437;52.236;5.710;2023-04-24T03:24:51;9.00;99.90
18502;DHT22;68437;52.236;5.710;2023-04-24T03:27:17;9.00;99.90
18502;DHT22;68437;52.236;5.710;2023-04-24T03:29:44;9.00;99.90
18502;DHT22;68437;52.236;5.710;2023-04-24T03:32:11;9.00;99.90
18502;DHT22;68437;52.236;5.710;2023-04-24T03:34:38;9.00;99.90
18502;DHT22;68437;52.236;5.710;2023-04-24T03:37:04;9.00;99.90
18502;DHT22;68437;52.236;5.710;2023-04-24T03:39:31;9.00;99.90
18502;DHT22;68437;52.236;5.710;2023-04-24T03:41:59;9.00;99.90
18502;DHT22;68437;52.236;5.710;2023-04-24T03:44:26;9.00;99.90
18502;DHT22;68437;52.236;5.710;2023-04-24T03:46:53;9.00;99.90
18502;DHT22;68437;52.236;5.710;2023-04-24T03:49:20;8.90;99.90
18502;DHT22;68437;52.236;5.710;2023-04-24T03:51:47;8.90;99.90
18502;DHT22;68437;52.236;5.710;2023-04-24T03:54:14;8.90;99.90
18502;DHT22;68437;52.236;5.710;2023-04-24T03:56:41;8.90;99.90
18502;DHT22;68437;52.236;5.710;2023-04-24T03:59:09;8.90;99.90
18502;DHT22;68437;52.236;5.710;2023-04-24T04:01:36;8.90;99.90
18502;DHT22;68437;52.236;5.710;2023-04-24T04:04:03;8.90;99.90
18502;DHT22;68437;52.236;5.710;2023-04-24T04:06:30;8.90;99.90
18502;DHT22;68437;52.236;5.710;2023-04-24T04:08:57;8.90;99.90
18502;DHT22;68437;52.236;5.710;2023-04-24T04:11:24;8.90;99.90
18502;DHT22;68437;52.236;5.710;2023-04-24T04:13:51;8.90;99.90
18502;DHT22;68437;52.236;5.710;2023-04-24T04:16:19;8.90;99.90
18502;DHT22;68437;52.236;5.710;2023-04-24T04:18:46;8.80;99.90
18502;DHT22;68437;52.236;5.710;2023-04-24T04:21:13;8.90;99.90
18502;DHT22;68437;52.236;5.710;2023-04-24T04:23:40;8.90;99.90
18502;DHT22;68437;52.236;5.710;2023-04-24T04:26:07;8.90;99.90
18502;DHT22;68437;52.236;5.710;2023-04-24T04:28:34;8.90;99.90
18502;DHT22;68437;52.236;5.710;2023-04-24T04:31:01;8.80;99.90
18502;DHT22;68437;52.236;5.710;2023-04-24T04:33:29;8.80;99.90
18502;DHT22;68437;52.236;5.710;2023-04-24T04:35:56;8.80;99.90
18502;DHT22;68437;52.236;5.710;2023-04-24T04:38:24;8.80;99.90
18502;DHT22;68437;52.236;5.710;2023-04-24T04:40:52;8.80;99.90
18502;DHT22;68437;52.236;5.710;2023-04-24T04:43:19;8.80;99.90
18502;DHT22;68437;52.236;5.710;2023-04-24T04:45:45;8.70;99.90
18502;DHT22;68437;52.236;5.710;2023-04-24T04:48:13;8.70;99.90
18502;DHT22;68437;52.236;5.710;2023-04-24T04:50:44;8.70;99.90
18502;DHT22;68437;52.236;5.710;2023-04-24T04:53:11;8.70;99.90
18502;DHT22;68437;52.236;5.710;2023-04-24T04:55:38;8.70;99.90
18502;DHT22;68437;52.236;5.710;2023-04-24T04:58:05;8.70;99.90
18502;DHT22;68437;52.236;5.710;2023-04-24T05:00:31;8.70;99.90
18502;DHT22;68437;52.236;5.710;2023-04-24T05:03:01;8.70;99.90
18502;DHT22;68437;52.236;5.710;2023-04-24T05:05:27;8.70;99.90
18502;DHT22;68437;52.236;5.710;2023-04-24T05:07:56;8.70;99.90
18502;DHT22;68437;52.236;5.710;2023-04-24T05:10:22;8.70;99.90
18502;DHT22;68437;52.236;5.710;2023-04-24T05:12:49;8.70;99.90
18502;DHT22;68437;52.236;5.710;2023-04-24T05:15:16;8.70;99.90
18502;DHT22;68437;52.236;5.710;2023-04-24T05:17:46;8.70;99.90
18502;DHT22;68437;52.236;5.710;2023-04-24T05:20:13;8.80;99.90
18502;DHT22;68437;52.236;5.710;2023-04-24T05:22:40;8.70;99.90
18502;DHT22;68437;52.236;5.710;2023-04-24T05:25:08;8.70;99.90
18502;DHT22;68437;52.236;5.710;2023-04-24T05:27:35;8.70;99.90
18502;DHT22;68437;52.236;5.710;2023-04-24T05:30:03;8.70;99.90
18502;DHT22;68437;52.236;5.710;2023-04-24T05:32:30;8.70;99.90
18502;DHT22;68437;52.236;5.710;2023-04-24T05:34:56;8.70;99.90
18502;DHT22;68437;52.236;5.710;2023-04-24T05:37:23;8.80;99.90
18502;DHT22;68437;52.236;5.710;2023-04-24T05:39:50;8.70;99.90
18502;DHT22;68437;52.236;5.710;2023-04-24T05:42:18;8.80;99.90
18502;DHT22;68437;52.236;5.710;2023-04-24T05:44:45;8.80;99.90
18502;DHT22;68437;52.236;5.710;2023-04-24T05:47:12;8.80;99.90
18502;DHT22;68437;52.236;5.710;2023-04-24T05:49:39;8.80;99.90
18502;DHT22;68437;52.236;5.710;2023-04-24T05:52:05;8.80;99.90
18502;DHT22;68437;52.236;5.710;2023-04-24T05:54:34;8.80;99.90
18502;DHT22;68437;52.236;5.710;2023-04-24T05:57:01;8.80;99.90
18502;DHT22;68437;52.236;5.710;2023-04-24T05:59:36;8.90;99.90
18502;DHT22;68437;52.236;5.710;2023-04-24T06:02:03;8.90;99.90
18502;DHT22;68437;52.236;5.710;2023-04-24T06:04:32;8.90;99.90
18502;DHT22;68437;52.236;5.710;2023-04-24T06:06:59;9.00;99.90
18502;DHT22;68437;52.236;5.710;2023-04-24T06:09:26;9.00;99.90
18502;DHT22;68437;52.236;5.710;2023-04-24T06:11:53;9.00;99.90
18502;DHT22;68437;52.236;5.710;2023-04-24T06:14:20;8.90;99.90
18502;DHT22;68437;52.236;5.710;2023-04-24T06:16:51;8.90;99.90
18502;DHT22;68437;52.236;5.710;2023-04-24T06:19:18;8.90;99.90
18502;DHT22;68437;52.236;5.710;2023-04-24T06:21:45;8.80;99.90
18502;DHT22;68437;52.236;5.710;2023-04-24T06:24:14;8.80;99.90
18502;DHT22;68437;52.236;5.710;2023-04-24T06:26:42;8.80;99.90
18502;DHT22;68437;52.236;5.710;2023-04-24T06:29:08;8.80;99.90
18502;DHT22;68437;52.236;5.710;2023-04-24T06:31:35;8.80;99.90
18502;DHT22;68437;52.236;5.710;2023-04-24T06:34:04;8.80;99.90
18502;DHT22;68437;52.236;5.710;2023-04-24T06:36:31;8.80;99.90
18502;DHT22;68437;52.236;5.710;2023-04-24T06:38:58;8.70;99.90
18502;DHT22;68437;52.236;5.710;2023-04-24T06:41:24;8.70;99.90
18502;DHT22;68437;52.236;5.710;2023-04-24T06:43:51;8.80;99.90
18502;DHT22;68437;52.236;5.710;2023-04-24T06:46:18;8.70;99.90
18502;DHT22;68437;52.236;5.710;2023-04-24T06:48:47;8.70;99.90
18502;DHT22;68437;52.236;5.710;2023-04-24T06:51:15;8.70;99.90
18502;DHT22;68437;52.236;5.710;2023-04-24T06:53:43;8.80;99.90
18502;DHT22;68437;52.236;5.710;2023-04-24T06:56:10;8.70;99.90
18502;DHT22;68437;52.236;5.710;2023-04-24T06:58:37;8.70;99.90
18502;DHT22;68437;52.236;5.710;2023-04-24T07:01:04;8.70;99.90
18502;DHT22;68437;52.236;5.710;2023-04-24T07:03:30;8.70;99.90
18502;DHT22;68437;52.236;5.710;2023-04-24T07:05:57;8.80;99.90
18502;DHT22;68437;52.236;5.710;2023-04-24T07:08:26;8.70;99.90
18502;DHT22;68437;52.236;5.710;2023-04-24T07:10:53;8.70;99.90
18502;DHT22;68437;52.236;5.710;2023-04-24T07:13:21;8.60;99.90
18502;DHT22;68437;52.236;5.710;2023-04-24T07:15:48;8.60;99.90
18502;DHT22;68437;52.236;5.710;2023-04-24T07:18:16;8.60;99.90
18502;DHT22;68437;52.236;5.710;2023-04-24T07:20:43;8.50;99.90
18502;DHT22;68437;52.236;5.710;2023-04-24T07:23:10;8.50;99.90
18502;DHT22;68437;52.236;5.710;2023-04-24T07:25:38;8.50;99.90
18502;DHT22;68437;52.236;5.710;2023-04-24T07:28:06;8.50;99.90
18502;DHT22;68437;52.236;5.710;2023-04-24T07:30:33;8.40;99.90
18502;DHT22;68437;52.236;5.710;2023-04-24T07:33:00;8.50;99.90
18502;DHT22;68437;52.236;5.710;2023-04-24T07:35:27;8.50;99.90
18502;DHT22;68437;52.236;5.710;2023-04-24T07:37:54;8.50;99.90
18502;DHT22;68437;52.236;5.710;2023-04-24T07:40:21;8.40;99.90
18502;DHT22;68437;52.236;5.710;2023-04-24T07:42:49;8.40;99.90
18502;DHT22;68437;52.236;5.710;2023-04-24T07:45:16;8.30;99.90
18502;DHT22;68437;52.236;5.710;2023-04-24T07:47:43;8.20;99.90
18502;DHT22;68437;52.236;5.710;2023-04-24T07:50:11;8.20;99.90
18502;DHT22;68437;52.236;5.710;2023-04-24T07:52:38;8.20;99.90
18502;DHT22;68437;52.236;5.710;2023-04-24T07:55:06;8.20;99.90
18502;DHT22;68437;52.236;5.710;2023-04-24T07:57:32;8.20;99.90
18502;DHT22;68437;52.236;5.710;2023-04-24T08:00:03;8.10;99.90
18502;DHT22;68437;52.236;5.710;2023-04-24T08:02:33;8.10;99.90
18502;DHT22;68437;52.236;5.710;2023-04-24T08:05:00;8.10;99.90
18502;DHT22;68437;52.236;5.710;2023-04-24T08:07:28;8.10;99.90
18502;DHT22;68437;52.236;5.710;2023-04-24T08:09:55;8.10;99.90
18502;DHT22;68437;52.236;5.710;2023-04-24T08:12:22;8.10;99.90
18502;DHT22;68437;52.236;5.710;2023-04-24T08:14:49;8.10;99.90
18502;DHT22;68437;52.236;5.710;2023-04-24T08:17:17;8.20;99.90
18502;DHT22;68437;52.236;5.710;2023-04-24T08:19:44;8.20;99.90
18502;DHT22;68437;52.236;5.710;2023-04-24T08:22:14;8.20;99.90
18502;DHT22;68437;52.236;5.710;2023-04-24T08:24:40;8.30;99.90
18502;DHT22;68437;52.236;5.710;2023-04-24T08:27:08;8.30;99.90
18502;DHT22;68437;52.236;5.710;2023-04-24T08:29:35;8.30;99.90
18502;DHT22;68437;52.236;5.710;2023-04-24T08:32:02;8.30;99.90
18502;DHT22;68437;52.236;5.710;2023-04-24T08:34:30;8.30;99.90
18502;DHT22;68437;52.236;5.710;2023-04-24T08:36:57;8.40;99.90
18502;DHT22;68437;52.236;5.710;2023-04-24T08:39:23;8.40;99.90
18502;DHT22;68437;52.236;5.710;2023-04-24T08:41:50;8.30;99.90
18502;DHT22;68437;52.236;5.710;2023-04-24T08:44:20;8.40;99.90
18502;DHT22;68437;52.236;5.710;2023-04-24T08:46:48;8.40;99.90
18502;DHT22;68437;52.236;5.710;2023-04-24T08:49:17;8.40;99.90
18502;DHT22;68437;52.236;5.710;2023-04-24T08:51:46;8.40;99.90
18502;DHT22;68437;52.236;5.710;2023-04-24T08:54:14;8.40;99.90
18502;DHT22;68437;52.236;5.710;2023-04-24T08:56:44;8.40;99.90
18502;DHT22;68437;52.236;5.710;2023-04-24T08:59:11;8.30;99.90
18502;DHT22;68437;52.236;5.710;2023-04-24T09:01:40;8.30;99.90
18502;DHT22;68437;52.236;5.710;2023-04-24T09:04:08;8.20;99.90
18502;DHT22;68437;52.236;5.710;2023-04-24T09:06:37;8.10;99.90
18502;DHT22;68437;52.236;5.710;2023-04-24T09:09:05;8.10;99.90
18502;DHT22;68437;52.236;5.710;2023-04-24T09:11:32;8.10;99.90
18502;DHT22;68437;52.236;5.710;2023-04-24T09:13:59;8.10;99.90
18502;DHT22;68437;52.236;5.710;2023-04-24T09:16:27;8.10;99.90
18502;DHT22;68437;52.236;5.710;2023-04-24T09:18:55;8.10;99.90
18502;DHT22;68437;52.236;5.710;2023-04-24T09:21:22;8.10;99.90
18502;DHT22;68437;52.236;5.710;2023-04-24T09:23:57;8.10;99.90
18502;DHT22;68437;52.236;5.710;2023-04-24T09:26:26;8.10;99.90
18502;DHT22;68437;52.236;5.710;2023-04-24T09:28:56;8.10;99.90
18502;DHT22;68437;52.236;5.710;2023-04-24T09:31:27;8.00;99.90
18502;DHT22;68437;52.236;5.710;2023-04-24T09:33:56;8.00;99.90
18502;DHT22;68437;52.236;5.710;2023-04-24T09:36:30;8.00;99.90
18502;DHT22;68437;52.236;5.710;2023-04-24T09:38:58;8.00;99.90
18502;DHT22;68437;52.236;5.710;2023-04-24T09:41:27;8.00;99.90
18502;DHT22;68437;52.236;5.710;2023-04-24T09:43:55;8.00;99.90
18502;DHT22;68437;52.236;5.710;2023-04-24T09:46:29;8.10;99.90
18502;DHT22;68437;52.236;5.710;2023-04-24T09:48:57;8.30;99.90
18502;DHT22;68437;52.236;5.710;2023-04-24T09:51:34;8.40;99.90
18502;DHT22;68437;52.236;5.710;2023-04-24T09:54:02;8.60;99.90
18502;DHT22;68437;52.236;5.710;2023-04-24T09:56:34;8.70;99.90
18502;DHT22;68437;52.236;5.710;2023-04-24T09:59:05;8.80;99.90
18502;DHT22;68437;52.236;5.710;2023-04-24T10:01:33;8.80;99.90
18502;DHT22;68437;52.236;5.710;2023-04-24T10:04:00;8.80;99.90
18502;DHT22;68437;52.236;5.710;2023-04-24T10:06:32;8.80;99.90
18502;DHT22;68437;52.236;5.710;2023-04-24T10:08:59;8.80;99.90
18502;DHT22;68437;52.236;5.710;2023-04-24T10:11:27;8.80;99.90
18502;DHT22;68437;52.236;5.710;2023-04-24T10:13:55;8.80;99.90
18502;DHT22;68437;52.236;5.710;2023-04-24T10:16:24;8.80;99.90
18502;DHT22;68437;52.236;5.710;2023-04-24T10:18:52;8.80;99.90
18502;DHT22;68437;52.236;5.710;2023-04-24T10:21:19;8.90;99.90
18502;DHT22;68437;52.236;5.710;2023-04-24T10:23:48;9.00;99.90
18502;DHT22;68437;52.236;5.710;2023-04-24T10:26:17;9.20;99.90
18502;DHT22;68437;52.236;5.710;2023-04-24T10:28:45;9.30;99.90
18502;DHT22;68437;52.236;5.710;2023-04-24T10:31:14;9.30;99.90
18502;DHT22;68437;52.236;5.710;2023-04-24T10:33:42;9.30;99.90
18502;DHT22;68437;52.236;5.710;2023-04-24T10:36:10;9.30;99.90
18502;DHT22;68437;52.236;5.710;2023-04-24T10:38:39;9.30;99.90
18502;DHT22;68437;52.236;5.710;2023-04-24T10:41:07;9.50;99.90
18502;DHT22;68437;52.236;5.710;2023-04-24T10:43:35;9.60;99.90
18502;DHT22;68437;52.236;5.710;2023-04-24T10:46:02;9.70;99.90
18502;DHT22;68437;52.236;5.710;2023-04-24T10:48:33;9.70;99.90
18502;DHT22;68437;52.236;5.710;2023-04-24T10:51:01;9.70;99.90
18502;DHT22;68437;52.236;5.710;2023-04-24T10:53:29;9.70;99.90
18502;DHT22;68437;52.236;5.710;2023-04-24T10:56:03;9.70;99.90
18502;DHT22;68437;52.236;5.710;2023-04-24T10:58:38;9.50;99.90
18502;DHT22;68437;52.236;5.710;2023-04-24T11:01:06;9.50;99.90
18502;DHT22;68437;52.236;5.710;2023-04-24T11:03:35;9.40;99.90
18502;DHT22;68437;52.236;5.710;2023-04-24T11:06:03;9.50;99.90
18502;DHT22;68437;52.236;5.710;2023-04-24T11:08:37;9.50;99.90
18502;DHT22;68437;52.236;5.710;2023-04-24T11:11:10;9.30;99.90
18502;DHT22;68437;52.236;5.710;2023-04-24T11:14:02;9.10;99.90
18502;DHT22;68437;52.236;5.710;2023-04-24T11:16:32;9.00;99.90
18502;DHT22;68437;52.236;5.710;2023-04-24T11:19:06;9.00;99.90
18502;DHT22;68437;52.236;5.710;2023-04-24T11:21:40;9.20;99.90
18502;DHT22;68437;52.236;5.710;2023-04-24T11:24:27;9.30;99.90
18502;DHT22;68437;52.236;5.710;2023-04-24T11:26:55;9.40;99.90
18502;DHT22;68437;52.236;5.710;2023-04-24T11:29:22;9.40;99.90
18502;DHT22;68437;52.236;5.710;2023-04-24T11:31:49;9.60;99.90
18502;DHT22;68437;52.236;5.710;2023-04-24T11:34:18;9.70;99.90
18502;DHT22;68437;52.236;5.710;2023-04-24T11:36:45;9.80;99.90
18502;DHT22;68437;52.236;5.710;2023-04-24T11:39:13;9.90;99.90
18502;DHT22;68437;52.236;5.710;2023-04-24T11:41:40;9.90;99.90
18502;DHT22;68437;52.236;5.710;2023-04-24T11:44:08;10.10;99.90
18502;DHT22;68437;52.236;5.710;2023-04-24T11:46:35;10.20;99.90
18502;DHT22;68437;52.236;5.710;2023-04-24T11:49:03;10.40;99.90
18502;DHT22;68437;52.236;5.710;2023-04-24T11:51:32;10.40;99.90
18502;DHT22;68437;52.236;5.710;2023-04-24T11:53:59;10.60;99.90
18502;DHT22;68437;52.236;5.710;2023-04-24T11:56:26;10.40;99.90
18502;DHT22;68437;52.236;5.710;2023-04-24T11:58:53;10.20;99.90
18502;DHT22;68437;52.236;5.710;2023-04-24T12:01:20;9.90;99.90
18502;DHT22;68437;52.236;5.710;2023-04-24T12:03:48;9.80;99.90
18502;DHT22;68437;52.236;5.710;2023-04-24T12:06:16;9.70;99.90
18502;DHT22;68437;52.236;5.710;2023-04-24T12:08:47;9.60;99.90
18502;DHT22;68437;52.236;5.710;2023-04-24T12:11:16;9.60;99.90
18502;DHT22;68437;52.236;5.710;2023-04-24T12:13:44;9.60;99.90
18502;DHT22;68437;52.236;5.710;2023-04-24T12:16:11;9.60;99.90
18502;DHT22;68437;52.236;5.710;2023-04-24T12:18:42;9.70;99.90
18502;DHT22;68437;52.236;5.710;2023-04-24T12:21:17;9.90;99.90
18502;DHT22;68437;52.236;5.710;2023-04-24T12:23:44;10.00;99.90
18502;DHT22;68437;52.236;5.710;2023-04-24T12:26:16;10.00;99.90
18502;DHT22;68437;52.236;5.710;2023-04-24T12:28:46;10.00;99.90
18502;DHT22;68437;52.236;5.710;2023-04-24T12:31:13;9.80;99.90
18502;DHT22;68437;52.236;5.710;2023-04-24T12:33:40;9.70;99.90
18502;DHT22;68437;52.236;5.710;2023-04-24T12:36:10;9.80;99.90
18502;DHT22;68437;52.236;5.710;2023-04-24T12:38:37;9.70;99.90
18502;DHT22;68437;52.236;5.710;2023-04-24T12:41:07;9.90;99.90
18502;DHT22;68437;52.236;5.710;2023-04-24T12:43:36;10.20;99.90
18502;DHT22;68437;52.236;5.710;2023-04-24T12:46:04;10.30;99.90
18502;DHT22;68437;52.236;5.710;2023-04-24T12:48:31;10.40;99.90
18502;DHT22;68437;52.236;5.710;2023-04-24T12:50:58;10.50;99.90
18502;DHT22;68437;52.236;5.710;2023-04-24T12:53:27;10.50;99.90
18502;DHT22;68437;52.236;5.710;2023-04-24T12:55:56;10.40;99.90
18502;DHT22;68437;52.236;5.710;2023-04-24T12:58:23;10.20;99.90
18502;DHT22;68437;52.236;5.710;2023-04-24T13:00:52;10.30;99.90
18502;DHT22;68437;52.236;5.710;2023-04-24T13:03:19;10.30;99.90
18502;DHT22;68437;52.236;5.710;2023-04-24T13:05:48;10.20;99.90
18502;DHT22;68437;52.236;5.710;2023-04-24T13:08:14;10.10;99.90
18502;DHT22;68437;52.236;5.710;2023-04-24T13:10:41;9.90;99.90
18502;DHT22;68437;52.236;5.710;2023-04-24T13:13:08;9.80;99.90
18502;DHT22;68437;52.236;5.710;2023-04-24T13:15:35;9.50;99.90
18502;DHT22;68437;52.236;5.710;2023-04-24T13:18:03;9.30;99.90
18502;DHT22;68437;52.236;5.710;2023-04-24T13:20:30;9.10;99.90
18502;DHT22;68437;52.236;5.710;2023-04-24T13:22:57;8.90;99.90
18502;DHT22;68437;52.236;5.710;2023-04-24T13:25:24;8.80;99.90
18502;DHT22;68437;52.236;5.710;2023-04-24T13:27:51;8.80;99.90
18502;DHT22;68437;52.236;5.710;2023-04-24T13:30:19;9.00;99.90
18502;DHT22;68437;52.236;5.710;2023-04-24T13:32:46;9.20;99.90
18502;DHT22;68437;52.236;5.710;2023-04-24T13:35:14;9.30;99.90
18502;DHT22;68437;52.236;5.710;2023-04-24T13:37:40;9.40;99.90
18502;DHT22;68437;52.236;5.710;2023-04-24T13:40:08;9.40;99.90
18502;DHT22;68437;52.236;5.710;2023-04-24T13:42:35;9.50;99.90
18502;DHT22;68437;52.236;5.710;2023-04-24T13:45:03;9.70;99.90
18502;DHT22;68437;52.236;5.710;2023-04-24T13:47:30;9.60;99.90
18502;DHT22;68437;52.236;5.710;2023-04-24T13:49:57;9.60;99.90
18502;DHT22;68437;52.236;5.710;2023-04-24T13:52:25;9.60;99.90
18502;DHT22;68437;52.236;5.710;2023-04-24T13:54:52;9.50;99.90
18502;DHT22;68437;52.236;5.710;2023-04-24T13:57:19;9.40;99.90
18502;DHT22;68437;52.236;5.710;2023-04-24T13:59:46;9.30;99.90
18502;DHT22;68437;52.236;5.710;2023-04-24T14:02:13;9.30;99.90
18502;DHT22;68437;52.236;5.710;2023-04-24T14:04:40;9.20;99.90
18502;DHT22;68437;52.236;5.710;2023-04-24T14:07:06;9.30;99.90
18502;DHT22;68437;52.236;5.710;2023-04-24T14:09:35;9.40;99.90
18502;DHT22;68437;52.236;5.710;2023-04-24T14:12:02;9.50;99.90
18502;DHT22;68437;52.236;5.710;2023-04-24T14:14:29;9.60;99.90
18502;DHT22;68437;52.236;5.710;2023-04-24T14:16:57;9.70;99.90
18502;DHT22;68437;52.236;5.710;2023-04-24T14:19:23;10.00;99.90
18502;DHT22;68437;52.236;5.710;2023-04-24T14:21:50;10.30;99.90
18502;DHT22;68437;52.236;5.710;2023-04-24T14:24:18;10.60;99.90
18502;DHT22;68437;52.236;5.710;2023-04-24T14:26:46;10.40;99.90
18502;DHT22;68437;52.236;5.710;2023-04-24T14:29:13;10.10;99.90
18502;DHT22;68437;52.236;5.710;2023-04-24T14:31:40;9.70;99.90
18502;DHT22;68437;52.236;5.710;2023-04-24T14:34:08;9.30;99.90
18502;DHT22;68437;52.236;5.710;2023-04-24T14:36:35;9.10;99.90
18502;DHT22;68437;52.236;5.710;2023-04-24T14:39:01;9.20;99.90
18502;DHT22;68437;52.236;5.710;2023-04-24T14:41:31;9.50;99.90
18502;DHT22;68437;52.236;5.710;2023-04-24T14:44:02;9.80;99.90
18502;DHT22;68437;52.236;5.710;2023-04-24T14:46:29;10.20;99.90
18502;DHT22;68437;52.236;5.710;2023-04-24T14:48:56;10.40;99.90
18502;DHT22;68437;52.236;5.710;2023-04-24T14:51:25;10.70;99.90
18502;DHT22;68437;52.236;5.710;2023-04-24T14:53:56;10.80;99.90
18502;DHT22;68437;52.236;5.710;2023-04-24T14:56:23;10.60;99.90
18502;DHT22;68437;52.236;5.710;2023-04-24T14:58:50;10.70;99.90
18502;DHT22;68437;52.236;5.710;2023-04-24T15:01:18;10.90;99.90
18502;DHT22;68437;52.236;5.710;2023-04-24T15:03:44;10.70;99.90
18502;DHT22;68437;52.236;5.710;2023-04-24T15:06:11;10.60;99.90
18502;DHT22;68437;52.236;5.710;2023-04-24T15:08:38;10.60;99.90
18502;DHT22;68437;52.236;5.710;2023-04-24T15:11:05;10.90;99.90
18502;DHT22;68437;52.236;5.710;2023-04-24T15:13:35;11.40;99.90
18502;DHT22;68437;52.236;5.710;2023-04-24T15:16:02;11.40;99.90
18502;DHT22;68437;52.236;5.710;2023-04-24T15:18:30;11.50;99.90
18502;DHT22;68437;52.236;5.710;2023-04-24T15:20:57;11.60;99.90
18502;DHT22;68437;52.236;5.710;2023-04-24T15:23:24;11.70;99.90
18502;DHT22;68437;52.236;5.710;2023-04-24T15:25:50;11.90;99.90
18502;DHT22;68437;52.236;5.710;2023-04-24T15:28:17;11.90;99.90
18502;DHT22;68437;52.236;5.710;2023-04-24T15:30:44;12.00;99.90
18502;DHT22;68437;52.236;5.710;2023-04-24T15:33:11;12.00;99.90
18502;DHT22;68437;52.236;5.710;2023-04-24T15:35:39;12.00;99.90
18502;DHT22;68437;52.236;5.710;2023-04-24T15:38:06;11.80;99.90
18502;DHT22;68437;52.236;5.710;2023-04-24T15:40:33;11.80;99.90
18502;DHT22;68437;52.236;5.710;2023-04-24T15:43:00;11.80;99.90
18502;DHT22;68437;52.236;5.710;2023-04-24T15:45:34;11.80;99.90
18502;DHT22;68437;52.236;5.710;2023-04-24T15:48:01;11.60;99.90